createdAt,value
2017-07-11T00:00:22.599Z,1001.4
2017-07-11T00:01:24.654Z,1001.4
2017-07-11T00:02:26.705Z,1001.4
2017-07-11T00:03:28.767Z,1001.4
2017-07-11T00:04:30.818Z,1001.4
2017-07-11T00:05:32.865Z,1001.4
2017-07-11T00:06:34.931Z,1001.4
2017-07-11T00:07:36.987Z,1001.4
2017-07-11T00:08:39.046Z,1001.4
2017-07-11T00:09:41.100Z,1001.5
2017-07-11T00:10:43.155Z,1001.5
2017-07-11T00:11:45.215Z,1001.4
2017-07-11T00:12:47.271Z,1001.4
2017-07-11T00:13:49.331Z,1001.4
2017-07-11T00:14:51.388Z,1001.3
2017-07-11T00:15:53.451Z,1001.3
2017-07-11T00:16:55.512Z,1001.3
2017-07-11T00:17:57.561Z,1001.3
2017-07-11T00:18:59.964Z,1001.3
2017-07-11T00:20:02.359Z,1001.3
2017-07-11T00:21:04.419Z,1001.3
2017-07-11T00:22:06.482Z,1001.3
2017-07-11T00:23:08.528Z,1001.4
2017-07-11T00:24:10.584Z,1001.4
2017-07-11T00:25:12.640Z,1001.4
2017-07-11T00:26:14.689Z,1001.4
2017-07-11T00:27:16.749Z,1001.4
2017-07-11T00:28:18.805Z,1001.4
2017-07-11T00:29:20.864Z,1001.4
2017-07-11T00:30:22.921Z,1001.3
2017-07-11T00:31:24.965Z,1001.4
2017-07-11T00:32:27.025Z,1001.3
2017-07-11T00:33:29.085Z,1001.3
2017-07-11T00:34:31.139Z,1001.3
2017-07-11T00:35:33.190Z,1001.3
2017-07-11T00:36:35.254Z,1001.4
2017-07-11T00:37:37.315Z,1001.4
2017-07-11T00:38:39.359Z,1001.4
2017-07-11T00:39:41.418Z,1001.4
2017-07-11T00:40:43.478Z,1001.4
2017-07-11T00:41:45.531Z,1001.4
2017-07-11T00:42:47.587Z,1001.4
2017-07-11T00:43:49.639Z,1001.4
2017-07-11T00:44:51.695Z,1001.4
2017-07-11T00:45:53.743Z,1001.4
2017-07-11T00:46:55.799Z,1001.4
2017-07-11T00:47:57.863Z,1001.4
2017-07-11T00:48:59.917Z,1001.4
2017-07-11T00:50:01.970Z,1001.5
2017-07-11T00:51:04.025Z,1001.5
2017-07-11T00:52:06.082Z,1001.5
2017-07-11T00:53:08.142Z,1001.5
2017-07-11T00:54:10.201Z,1001.5
2017-07-11T00:55:12.252Z,1001.5
2017-07-11T00:56:14.308Z,1001.5
2017-07-11T00:57:16.374Z,1001.5
2017-07-11T00:58:18.771Z,1001.6
2017-07-11T00:59:20.823Z,1001.5
2017-07-11T01:00:22.881Z,1001.5
2017-07-11T01:01:24.940Z,1001.5
2017-07-11T01:02:26.992Z,1001.5
2017-07-11T01:03:29.051Z,1001.5
2017-07-11T01:04:31.111Z,1001.5
2017-07-11T01:05:33.170Z,1001.5
2017-07-11T01:06:35.218Z,1001.4
2017-07-11T01:07:37.280Z,1001.4
2017-07-11T01:08:39.340Z,1001.3
2017-07-11T01:09:41.394Z,1001.3
2017-07-11T01:10:43.442Z,1001.3
2017-07-11T01:11:45.505Z,1001.3
2017-07-11T01:12:47.897Z,1001.3
2017-07-11T01:13:49.949Z,1001.3
2017-07-11T01:14:52.004Z,1001.3
2017-07-11T01:15:54.061Z,1001.3
2017-07-11T01:16:56.122Z,1001.3
2017-07-11T01:17:58.180Z,1001.3
2017-07-11T01:19:00.568Z,1001.3
2017-07-11T01:20:02.636Z,1001.2
2017-07-11T01:21:04.701Z,1001.2
2017-07-11T01:22:06.746Z,1001.2
2017-07-11T01:23:08.806Z,1001.2
2017-07-11T01:24:10.863Z,1001.2
2017-07-11T01:25:12.919Z,1001.2
2017-07-11T01:26:14.966Z,1001.2
2017-07-11T01:27:17.024Z,1001.3
2017-07-11T01:28:19.108Z,1001.3
2017-07-11T01:29:21.142Z,1001.3
2017-07-11T01:30:23.189Z,1001.3
2017-07-11T01:31:25.245Z,1001.3
2017-07-11T01:32:27.302Z,1001.4
2017-07-11T01:33:29.358Z,1001.3
2017-07-11T01:34:31.414Z,1001.3
2017-07-11T01:35:33.467Z,1001.3
2017-07-11T01:36:35.523Z,1001.3
2017-07-11T01:37:37.927Z,1001.4
2017-07-11T01:38:39.976Z,1001.3
2017-07-11T01:39:42.038Z,1001.3
2017-07-11T01:40:44.092Z,1001.3
2017-07-11T01:41:46.141Z,1001.3
2017-07-11T01:42:48.197Z,1001.3
2017-07-11T01:43:50.252Z,1001.3
2017-07-11T01:44:52.306Z,1001.3
2017-07-11T01:45:54.369Z,1001.3
2017-07-11T01:46:56.416Z,1001.3
2017-07-11T01:47:58.472Z,1001.3
2017-07-11T01:49:00.527Z,1001.3
2017-07-11T01:50:02.577Z,1001.3
2017-07-11T01:51:04.629Z,1001.3
2017-07-11T01:52:06.698Z,1001.3
2017-07-11T01:53:09.096Z,1001.4
2017-07-11T01:54:11.156Z,1001.4
2017-07-11T01:55:13.212Z,1001.4
2017-07-11T01:56:15.266Z,1001.5
2017-07-11T01:57:17.319Z,1001.5
2017-07-11T01:58:19.374Z,1001.4
2017-07-11T01:59:21.438Z,1001.5
2017-07-11T02:00:23.494Z,1001.5
2017-07-11T02:01:25.545Z,1001.5
2017-07-11T02:02:27.599Z,1001.4
2017-07-11T02:03:29.654Z,1001.4
2017-07-11T02:04:31.710Z,1001.4
2017-07-11T02:05:33.765Z,1001.4
2017-07-11T02:06:35.820Z,1001.5
2017-07-11T02:07:37.872Z,1001.5
2017-07-11T02:08:40.270Z,1001.5
2017-07-11T02:09:42.332Z,1001.4
2017-07-11T02:10:44.379Z,1001.4
2017-07-11T02:11:46.434Z,1001.4
2017-07-11T02:12:48.493Z,1001.4
2017-07-11T02:13:50.545Z,1001.4
2017-07-11T02:14:52.602Z,1001.4
2017-07-11T02:15:54.652Z,1001.4
2017-07-11T02:16:56.710Z,1001.4
2017-07-11T02:17:58.757Z,1001.4
2017-07-11T02:19:00.809Z,1001.4
2017-07-11T02:20:02.872Z,1001.4
2017-07-11T02:21:04.925Z,1001.4
2017-07-11T02:22:06.976Z,1001.4
2017-07-11T02:23:09.038Z,1001.4
2017-07-11T02:24:11.092Z,1001.4
2017-07-11T02:25:13.149Z,1001.4
2017-07-11T02:26:15.200Z,1001.4
2017-07-11T02:27:17.259Z,1001.3
2017-07-11T02:28:19.316Z,1001.4
2017-07-11T02:29:21.366Z,1001.3
2017-07-11T02:30:23.424Z,1001.3
2017-07-11T02:31:25.478Z,1001.4
2017-07-11T02:32:27.543Z,1001.5
2017-07-11T02:33:29.595Z,1001.4
2017-07-11T02:34:31.649Z,1001.4
2017-07-11T02:35:33.711Z,1001.5
2017-07-11T02:36:35.761Z,1001.5
2017-07-11T02:37:37.816Z,1001.5
2017-07-11T02:38:39.873Z,1001.5
2017-07-11T02:39:41.932Z,1001.5
2017-07-11T02:40:43.991Z,1001.4
2017-07-11T02:41:46.043Z,1001.4
2017-07-11T02:42:48.103Z,1001.4
2017-07-11T02:43:50.512Z,1001.4
2017-07-11T02:44:52.563Z,1001.4
2017-07-11T02:45:54.627Z,1001.4
2017-07-11T02:46:56.674Z,1001.4
2017-07-11T02:47:58.727Z,1001.4
2017-07-11T02:49:00.784Z,1001.4
2017-07-11T02:50:02.832Z,1001.4
2017-07-11T02:51:04.897Z,1001.3
2017-07-11T02:52:07.307Z,1001.3
2017-07-11T02:53:09.698Z,1001.4
2017-07-11T02:54:11.763Z,1001.4
2017-07-11T02:55:13.816Z,1001.3
2017-07-11T02:56:15.879Z,1001.3
2017-07-11T02:57:17.934Z,1001.3
2017-07-11T02:58:19.993Z,1001.4
2017-07-11T02:59:22.398Z,1001.4
2017-07-11T03:00:24.449Z,1001.4
2017-07-11T03:01:26.504Z,1001.4
2017-07-11T03:02:28.567Z,1001.4
2017-07-11T03:03:30.618Z,1001.4
2017-07-11T03:04:32.677Z,1001.4
2017-07-11T03:05:34.744Z,1001.4
2017-07-11T03:06:36.796Z,1001.4
2017-07-11T03:07:38.858Z,1001.4
2017-07-11T03:08:40.913Z,1001.4
2017-07-11T03:09:42.973Z,1001.4
2017-07-11T03:10:45.031Z,1001.4
2017-07-11T03:11:47.431Z,1001.4
2017-07-11T03:12:49.487Z,1001.3
2017-07-11T03:13:51.556Z,1001.4
2017-07-11T03:14:53.611Z,1001.3
2017-07-11T03:15:55.671Z,1001.3
2017-07-11T03:16:57.724Z,1001.4
2017-07-11T03:17:59.781Z,1001.4
2017-07-11T03:19:01.838Z,1001.4
2017-07-11T03:20:03.894Z,1001.4
2017-07-11T03:21:05.945Z,1001.4
2017-07-11T03:22:08.012Z,1001.4
2017-07-11T03:23:10.065Z,1001.5
2017-07-11T03:24:12.127Z,1001.5
2017-07-11T03:25:14.177Z,1001.5
2017-07-11T03:26:16.242Z,1001.5
2017-07-11T03:27:18.294Z,1001.5
2017-07-11T03:28:20.346Z,1001.6
2017-07-11T03:29:22.407Z,1001.7
2017-07-11T03:30:24.464Z,1001.6
2017-07-11T03:31:26.525Z,1001.7
2017-07-11T03:32:28.578Z,1001.7
2017-07-11T03:33:30.632Z,1001.7
2017-07-11T03:34:32.695Z,1001.7
2017-07-11T03:35:34.751Z,1001.7
2017-07-11T03:36:36.808Z,1001.8
2017-07-11T03:37:38.867Z,1001.8
2017-07-11T03:38:40.930Z,1001.8
2017-07-11T03:39:42.985Z,1001.8
2017-07-11T03:40:45.035Z,1001.8
2017-07-11T03:41:47.103Z,1001.8
2017-07-11T03:42:49.162Z,1001.8
2017-07-11T03:43:51.218Z,1001.8
2017-07-11T03:44:53.617Z,1001.9
2017-07-11T03:45:55.676Z,1001.9
2017-07-11T03:46:57.738Z,1001.9
2017-07-11T03:47:59.787Z,1001.8
2017-07-11T03:49:01.847Z,1001.9
2017-07-11T03:50:03.914Z,1001.9
2017-07-11T03:51:05.969Z,1001.9
2017-07-11T03:52:08.023Z,1002
2017-07-11T03:53:10.077Z,1001.9
2017-07-11T03:54:12.138Z,1002
2017-07-11T03:55:14.188Z,1002
2017-07-11T03:56:16.238Z,1002
2017-07-11T03:57:18.308Z,1002
2017-07-11T03:58:20.361Z,1002
2017-07-11T03:59:22.762Z,1002
2017-07-11T04:00:24.821Z,1002.1
2017-07-11T04:01:26.881Z,1002.1
2017-07-11T04:02:28.934Z,1002.1
2017-07-11T04:03:30.991Z,1002.1
2017-07-11T04:04:33.042Z,1002.1
2017-07-11T04:05:35.097Z,1002.1
2017-07-11T04:06:37.161Z,1002.1
2017-07-11T04:07:39.215Z,1002.1
2017-07-11T04:08:41.268Z,1002.2
2017-07-11T04:09:43.328Z,1002.1
2017-07-11T04:10:45.734Z,1002.1
2017-07-11T04:11:47.788Z,1002.1
2017-07-11T04:12:49.845Z,1002.1
2017-07-11T04:13:51.910Z,1002.1
2017-07-11T04:14:53.968Z,1002.1
2017-07-11T04:15:56.024Z,1002.1
2017-07-11T04:16:58.087Z,1002.1
2017-07-11T04:18:00.145Z,1002.1
2017-07-11T04:19:02.208Z,1002.1
2017-07-11T04:20:04.257Z,1002.1
2017-07-11T04:21:06.324Z,1002.1
2017-07-11T04:22:08.377Z,1002.1
2017-07-11T04:23:10.428Z,1002.1
2017-07-11T04:24:12.488Z,1002.1
2017-07-11T04:25:14.550Z,1002.1
2017-07-11T04:26:16.609Z,1002.1
2017-07-11T04:27:18.663Z,1002.1
2017-07-11T04:28:20.725Z,1002.1
2017-07-11T04:29:22.790Z,1002.2
2017-07-11T04:30:24.839Z,1002.1
2017-07-11T04:31:27.263Z,1002.2
2017-07-11T04:32:29.323Z,1002.2
2017-07-11T04:33:31.377Z,1002.2
2017-07-11T04:34:33.436Z,1002.2
2017-07-11T04:35:35.488Z,1002.2
2017-07-11T04:36:37.548Z,1002.2
2017-07-11T04:37:39.604Z,1002.2
2017-07-11T04:38:41.674Z,1002.2
2017-07-11T04:39:43.719Z,1002.2
2017-07-11T04:40:45.777Z,1002.2
2017-07-11T04:41:48.487Z,1002.2
2017-07-11T04:42:50.540Z,1002.2
2017-07-11T04:43:52.593Z,1002.2
2017-07-11T04:44:54.654Z,1002.2
2017-07-11T04:45:56.707Z,1002.1
2017-07-11T04:46:58.771Z,1002.2
2017-07-11T04:48:00.818Z,1002.1
2017-07-11T04:50:00.654Z,1002.2
2017-07-11T04:51:02.673Z,1002.1
2017-07-11T04:52:04.693Z,1002.1
2017-07-11T04:53:06.707Z,1002.1
2017-07-11T04:54:08.724Z,1002.1
2017-07-11T04:55:10.758Z,1002
2017-07-11T04:56:13.133Z,1002
2017-07-11T04:57:15.505Z,1002
2017-07-11T04:58:17.532Z,1002
2017-07-11T04:59:19.545Z,1002
2017-07-11T05:00:21.569Z,1002
2017-07-11T05:01:23.592Z,1002
2017-07-11T05:02:25.612Z,1001.9
2017-07-11T05:03:27.640Z,1001.9
2017-07-11T05:04:29.650Z,1001.9
2017-07-11T05:05:31.678Z,1002
2017-07-11T05:06:33.695Z,1001.9
2017-07-11T05:07:35.711Z,1002
2017-07-11T05:08:37.735Z,1002
2017-07-11T05:09:39.765Z,1002
2017-07-11T05:10:41.779Z,1001.9
2017-07-11T05:11:43.804Z,1001.9
2017-07-11T05:12:45.811Z,1001.9
2017-07-11T05:13:47.837Z,1001.9
2017-07-11T05:14:49.850Z,1001.9
2017-07-11T05:15:51.865Z,1001.9
2017-07-11T05:16:53.882Z,1001.9
2017-07-11T05:17:55.925Z,1001.9
2017-07-11T05:18:57.944Z,1001.9
2017-07-11T05:19:59.969Z,1001.9
2017-07-11T05:21:01.998Z,1001.9
2017-07-11T05:22:04.017Z,1001.8
2017-07-11T05:23:06.034Z,1001.9
2017-07-11T05:24:08.053Z,1001.9
2017-07-11T05:25:10.075Z,1001.9
2017-07-11T05:26:12.090Z,1001.9
2017-07-11T05:27:14.109Z,1001.9
2017-07-11T05:28:16.463Z,1001.9
2017-07-11T05:29:18.480Z,1002
2017-07-11T05:30:20.484Z,1002
2017-07-11T05:31:22.502Z,1002
2017-07-11T05:32:24.533Z,1002
2017-07-11T05:33:26.886Z,1002
2017-07-11T05:34:28.896Z,1002.1
2017-07-11T05:35:30.920Z,1002
2017-07-11T05:36:32.942Z,1002
2017-07-11T05:37:35.296Z,1002
2017-07-11T05:38:37.316Z,1002
2017-07-11T05:39:39.345Z,1002
2017-07-11T05:40:41.361Z,1002.1
2017-07-11T05:41:43.376Z,1002.1
2017-07-11T05:42:46.563Z,1002.1
2017-07-11T05:43:53.681Z,1002.1
2017-07-11T05:44:59.955Z,1002
2017-07-11T05:46:03.549Z,1002.1
2017-07-11T05:47:08.206Z,1002.1
2017-07-11T05:48:15.849Z,1002.1
2017-07-11T05:49:23.720Z,1002.1
2017-07-11T05:50:32.430Z,1002.1
2017-07-11T05:51:41.535Z,1002.1
2017-07-11T05:52:48.859Z,1002.1
2017-07-11T05:53:56.368Z,1002.1
2017-07-11T05:55:04.186Z,1002.2
2017-07-11T05:56:10.777Z,1002.2
2017-07-11T05:57:19.395Z,1002.2
2017-07-11T05:58:29.550Z,1002.2
2017-07-11T05:59:35.843Z,1002.2
2017-07-11T06:00:45.209Z,1002.2
2017-07-11T06:01:52.132Z,1002.2
2017-07-11T06:02:59.763Z,1002.2
2017-07-11T06:04:08.503Z,1002.2
2017-07-11T06:05:15.549Z,1002.2
2017-07-11T06:06:23.983Z,1002.2
2017-07-11T06:07:32.699Z,1002.3
2017-07-11T06:08:39.508Z,1002.2
2017-07-11T06:09:46.071Z,1002.2
2017-07-11T06:10:54.616Z,1002.2
2017-07-11T06:12:03.581Z,1002.2
2017-07-11T06:13:09.508Z,1002.2
2017-07-11T06:14:16.560Z,1002.2
2017-07-11T06:15:24.729Z,1002.2
2017-07-11T06:16:33.277Z,1002.2
2017-07-11T06:17:41.595Z,1002.2
2017-07-11T06:18:48.045Z,1002.2
2017-07-11T06:19:53.518Z,1002.2
2017-07-11T06:21:00.382Z,1002.2
2017-07-11T06:22:05.853Z,1002.2
2017-07-11T06:23:14.624Z,1002.2
2017-07-11T06:24:21.148Z,1002.2
2017-07-11T06:25:28.466Z,1002.2
2017-07-11T06:26:36.449Z,1002.2
2017-07-11T06:27:46.244Z,1002.2
2017-07-11T06:30:36.229Z,1002.1
2017-07-11T06:31:46.518Z,1002.2
2017-07-11T06:32:57.313Z,1002.1
2017-07-11T06:34:08.835Z,1002.1
2017-07-11T06:35:20.123Z,1002.2
2017-07-11T06:36:30.757Z,1002.2
2017-07-11T06:37:43.607Z,1002.2
2017-07-11T06:38:54.965Z,1002.2
2017-07-11T06:40:05.608Z,1002.2
2017-07-11T06:41:15.634Z,1002.2
2017-07-11T06:42:23.558Z,1002.3
2017-07-11T06:43:32.696Z,1002.2
2017-07-11T06:44:39.680Z,1002.3
2017-07-11T06:45:47.650Z,1002.3
2017-07-11T06:46:55.814Z,1002.3
2017-07-11T06:48:02.823Z,1002.4
2017-07-11T06:49:08.815Z,1002.4
2017-07-11T06:50:15.572Z,1002.3
2017-07-11T06:51:22.242Z,1002.4
2017-07-11T06:52:24.599Z,1002.4
2017-07-11T06:53:26.983Z,1002.4
2017-07-11T06:54:29.006Z,1002.4
2017-07-11T06:55:31.028Z,1002.4
2017-07-11T06:56:33.399Z,1002.4
2017-07-11T06:57:35.408Z,1002.4
2017-07-11T06:58:37.428Z,1002.4
2017-07-11T06:59:39.451Z,1002.4
2017-07-11T07:00:41.472Z,1002.4
2017-07-11T07:01:43.495Z,1002.5
2017-07-11T07:02:45.526Z,1002.5
2017-07-11T07:03:47.542Z,1002.5
2017-07-11T07:04:49.559Z,1002.5
2017-07-11T07:05:51.581Z,1002.4
2017-07-11T07:06:53.609Z,1002.4
2017-07-11T07:07:55.624Z,1002.4
2017-07-11T07:08:57.645Z,1002.5
2017-07-11T07:09:59.668Z,1002.4
2017-07-11T07:11:01.692Z,1002.5
2017-07-11T07:12:03.706Z,1002.4
2017-07-11T07:13:05.734Z,1002.5
2017-07-11T07:14:07.760Z,1002.4
2017-07-11T07:15:09.781Z,1002.4
2017-07-11T07:16:11.803Z,1002.4
2017-07-11T07:17:13.821Z,1002.4
2017-07-11T07:18:15.847Z,1002.4
2017-07-11T07:19:17.869Z,1002.4
2017-07-11T07:20:19.891Z,1002.4
2017-07-11T07:21:21.906Z,1002.4
2017-07-11T07:22:23.925Z,1002.3
2017-07-11T07:23:25.956Z,1002.4
2017-07-11T07:24:27.974Z,1002.4
2017-07-11T07:25:29.995Z,1002.4
2017-07-11T07:26:32.015Z,1002.4
2017-07-11T07:27:34.037Z,1002.4
2017-07-11T07:28:36.056Z,1002.4
2017-07-11T07:29:38.073Z,1002.4
2017-07-11T07:30:40.108Z,1002.4
2017-07-11T07:31:42.132Z,1002.4
2017-07-11T07:32:44.148Z,1002.4
2017-07-11T07:33:46.177Z,1002.4
2017-07-11T07:34:48.206Z,1002.3
2017-07-11T07:35:50.223Z,1002.4
2017-07-11T07:36:52.240Z,1002.4
2017-07-11T07:37:54.271Z,1002.4
2017-07-11T07:38:56.290Z,1002.4
2017-07-11T07:39:58.311Z,1002.4
2017-07-11T07:41:00.344Z,1002.4
2017-07-11T07:42:02.363Z,1002.3
2017-07-11T07:43:04.388Z,1002.3
2017-07-11T07:44:06.414Z,1002.3
2017-07-11T07:45:08.442Z,1002.3
2017-07-11T07:46:10.468Z,1002.3
2017-07-11T07:47:12.482Z,1002.3
2017-07-11T07:48:14.511Z,1002.3
2017-07-11T07:49:16.536Z,1002.3
2017-07-11T07:50:18.565Z,1002.2
2017-07-11T07:51:20.587Z,1002.2
2017-07-11T07:52:22.608Z,1002.2
2017-07-11T07:53:24.640Z,1002.2
2017-07-11T07:54:26.655Z,1002.2
2017-07-11T07:55:28.669Z,1002.3
2017-07-11T07:56:30.698Z,1002.3
2017-07-11T07:57:32.715Z,1002.3
2017-07-11T07:58:34.737Z,1002.2
2017-07-11T07:59:36.763Z,1002.3
2017-07-11T08:00:38.788Z,1002.3
2017-07-11T08:01:41.158Z,1002.3
2017-07-11T08:02:43.186Z,1002.3
2017-07-11T08:03:45.200Z,1002.3
2017-07-11T08:04:47.231Z,1002.3
2017-07-11T08:05:49.255Z,1002.3
2017-07-11T08:06:51.282Z,1002.3
2017-07-11T08:07:53.300Z,1002.3
2017-07-11T08:08:55.325Z,1002.3
2017-07-11T08:09:57.351Z,1002.4
2017-07-11T08:10:59.365Z,1002.3
2017-07-11T08:12:01.390Z,1002.3
2017-07-11T08:13:03.424Z,1002.3
2017-07-11T08:14:05.442Z,1002.3
2017-07-11T08:15:07.464Z,1002.3
2017-07-11T08:16:09.490Z,1002.3
2017-07-11T08:17:11.509Z,1002.3
2017-07-11T08:18:13.533Z,1002.2
2017-07-11T08:19:15.551Z,1002.3
2017-07-11T08:20:17.582Z,1002.2
2017-07-11T08:21:19.602Z,1002.3
2017-07-11T08:22:21.622Z,1002.2
2017-07-11T08:23:23.646Z,1002.2
2017-07-11T08:24:25.673Z,1002.2
2017-07-11T08:25:27.694Z,1002.2
2017-07-11T08:26:29.725Z,1002.2
2017-07-11T08:27:31.755Z,1002.2
2017-07-11T08:28:33.781Z,1002.2
2017-07-11T08:29:35.800Z,1002.2
2017-07-11T08:30:37.827Z,1002.2
2017-07-11T08:31:39.859Z,1002.2
2017-07-11T08:32:41.882Z,1002.2
2017-07-11T08:33:43.902Z,1002.2
2017-07-11T08:34:45.928Z,1002.2
2017-07-11T08:35:47.956Z,1002.2
2017-07-11T08:36:49.991Z,1002.3
2017-07-11T08:37:52.012Z,1002.2
2017-07-11T08:38:54.028Z,1002.2
2017-07-11T08:39:56.057Z,1002.2
2017-07-11T08:40:58.086Z,1002.2
2017-07-11T08:42:00.104Z,1002.2
2017-07-11T08:43:02.130Z,1002.2
2017-07-11T08:44:04.160Z,1002.2
2017-07-11T08:45:06.189Z,1002.3
2017-07-11T08:46:08.213Z,1002.2
2017-07-11T08:47:10.236Z,1002.3
2017-07-11T08:48:12.598Z,1002.2
2017-07-11T08:49:14.633Z,1002.3
2017-07-11T08:50:16.658Z,1002.3
2017-07-11T08:51:18.683Z,1002.3
2017-07-11T08:52:20.708Z,1002.3
2017-07-11T08:53:22.730Z,1002.3
2017-07-11T08:54:24.751Z,1002.3
2017-07-11T08:55:26.786Z,1002.3
2017-07-11T08:56:28.812Z,1002.3
2017-07-11T08:57:30.843Z,1002.3
2017-07-11T08:58:32.861Z,1002.3
2017-07-11T08:59:34.873Z,1002.3
2017-07-11T09:00:36.900Z,1002.4
2017-07-11T09:01:38.924Z,1002.3
2017-07-11T09:02:40.951Z,1002.4
2017-07-11T09:03:42.974Z,1002.4
2017-07-11T09:04:44.996Z,1002.4
2017-07-11T09:05:47.009Z,1002.4
2017-07-11T09:06:49.029Z,1002.4
2017-07-11T09:07:51.062Z,1002.4
2017-07-11T09:08:53.091Z,1002.4
2017-07-11T09:09:55.105Z,1002.4
2017-07-11T09:10:57.128Z,1002.4
2017-07-11T09:11:59.160Z,1002.4
2017-07-11T09:13:01.176Z,1002.4
2017-07-11T09:14:03.196Z,1002.5
2017-07-11T09:15:05.222Z,1002.4
2017-07-11T09:16:07.243Z,1002.5
2017-07-11T09:17:09.273Z,1002.5
2017-07-11T09:18:11.295Z,1002.4
2017-07-11T09:19:13.316Z,1002.4
2017-07-11T09:20:15.347Z,1002.4
2017-07-11T09:21:17.367Z,1002.4
2017-07-11T09:22:19.387Z,1002.5
2017-07-11T09:23:21.413Z,1002.4
2017-07-11T09:24:23.442Z,1002.5
2017-07-11T09:25:25.470Z,1002.5
2017-07-11T09:26:27.487Z,1002.5
2017-07-11T09:27:29.515Z,1002.5
2017-07-11T09:28:31.533Z,1002.6
2017-07-11T09:29:33.557Z,1002.5
2017-07-11T09:30:35.580Z,1002.5
2017-07-11T09:31:37.612Z,1002.5
2017-07-11T09:32:39.642Z,1002.5
2017-07-11T09:33:41.660Z,1002.5
2017-07-11T09:34:43.685Z,1002.5
2017-07-11T09:35:45.712Z,1002.5
2017-07-11T09:36:47.735Z,1002.5
2017-07-11T09:37:49.816Z,1002.5
2017-07-11T09:38:52.177Z,1002.5
2017-07-11T09:39:54.208Z,1002.5
2017-07-11T09:40:56.215Z,1002.5
2017-07-11T09:41:58.240Z,1002.5
2017-07-11T09:43:00.265Z,1002.5
2017-07-11T09:44:02.286Z,1002.5
2017-07-11T09:45:04.321Z,1002.5
2017-07-11T09:46:06.340Z,1002.5
2017-07-11T09:47:08.360Z,1002.5
2017-07-11T09:48:10.385Z,1002.5
2017-07-11T09:49:12.412Z,1002.5
2017-07-11T09:50:14.428Z,1002.5
2017-07-11T09:51:16.449Z,1002.5
2017-07-11T09:52:18.491Z,1002.4
2017-07-11T09:53:20.503Z,1002.5
2017-07-11T09:54:22.527Z,1002.4
2017-07-11T09:55:24.556Z,1002.5
2017-07-11T09:56:26.577Z,1002.5
2017-07-11T09:57:28.605Z,1002.5
2017-07-11T09:58:30.620Z,1002.5
2017-07-11T09:59:32.651Z,1002.5
2017-07-11T10:00:34.673Z,1002.5
2017-07-11T10:01:36.694Z,1002.5
2017-07-11T10:02:38.725Z,1002.5
2017-07-11T10:03:40.744Z,1002.5
2017-07-11T10:04:42.773Z,1002.5
2017-07-11T10:05:44.795Z,1002.5
2017-07-11T10:06:46.814Z,1002.5
2017-07-11T10:07:48.847Z,1002.5
2017-07-11T10:08:50.868Z,1002.5
2017-07-11T10:09:52.892Z,1002.5
2017-07-11T10:10:54.917Z,1002.5
2017-07-11T10:11:56.947Z,1002.5
2017-07-11T10:12:58.967Z,1002.4
2017-07-11T10:14:00.992Z,1002.4
2017-07-11T10:15:03.018Z,1002.4
2017-07-11T10:16:05.050Z,1002.5
2017-07-11T10:17:07.069Z,1002.4
2017-07-11T10:18:09.099Z,1002.5
2017-07-11T10:19:11.122Z,1002.5
2017-07-11T10:20:13.152Z,1002.5
2017-07-11T10:21:15.168Z,1002.5
2017-07-11T10:22:17.200Z,1002.5
2017-07-11T10:23:19.230Z,1002.5
2017-07-11T10:24:21.248Z,1002.5
2017-07-11T10:25:23.271Z,1002.5
2017-07-11T10:26:25.298Z,1002.5
2017-07-11T10:27:27.324Z,1002.5
2017-07-11T10:28:29.354Z,1002.5
2017-07-11T10:29:31.386Z,1002.5
2017-07-11T10:30:33.399Z,1002.5
2017-07-11T10:31:35.427Z,1002.5
2017-07-11T10:32:37.456Z,1002.5
2017-07-11T10:33:39.479Z,1002.5
2017-07-11T10:34:41.507Z,1002.5
2017-07-11T10:35:43.533Z,1002.5
2017-07-11T10:36:45.558Z,1002.5
2017-07-11T10:37:47.929Z,1002.5
2017-07-11T10:38:49.959Z,1002.5
2017-07-11T10:39:51.986Z,1002.5
2017-07-11T10:40:54.017Z,1002.5
2017-07-11T10:41:56.037Z,1002.5
2017-07-11T10:42:58.061Z,1002.5
2017-07-11T10:44:00.089Z,1002.5
2017-07-11T10:45:02.110Z,1002.5
2017-07-11T10:46:04.139Z,1002.5
2017-07-11T10:47:06.169Z,1002.5
2017-07-11T10:48:08.199Z,1002.5
2017-07-11T10:49:10.218Z,1002.5
2017-07-11T10:50:12.244Z,1002.5
2017-07-11T10:51:14.271Z,1002.5
2017-07-11T10:52:16.290Z,1002.5
2017-07-11T10:53:18.320Z,1002.5
2017-07-11T10:54:20.343Z,1002.5
2017-07-11T10:55:22.374Z,1002.5
2017-07-11T10:56:24.394Z,1002.5
2017-07-11T10:57:26.756Z,1002.5
2017-07-11T10:58:28.790Z,1002.4
2017-07-11T10:59:30.814Z,1002.5
2017-07-11T11:00:32.835Z,1002.4
2017-07-11T11:01:34.866Z,1002.4
2017-07-11T11:02:36.897Z,1002.3
2017-07-11T11:03:38.928Z,1002.3
2017-07-11T11:04:40.965Z,1002.3
2017-07-11T11:05:42.996Z,1002.3
2017-07-11T11:06:45.028Z,1002.3
2017-07-11T11:07:47.114Z,1002.4
2017-07-11T11:08:49.092Z,1002.4
2017-07-11T11:09:51.129Z,1002.4
2017-07-11T11:10:53.153Z,1002.4
2017-07-11T11:11:55.171Z,1002.3
2017-07-11T11:12:57.554Z,1002.3
2017-07-11T11:13:59.913Z,1002.3
2017-07-11T11:15:01.947Z,1002.3
2017-07-11T11:16:03.973Z,1002.3
2017-07-11T11:17:06.007Z,1002.3
2017-07-11T11:18:08.040Z,1002.3
2017-07-11T11:19:10.073Z,1002.3
2017-07-11T11:20:12.102Z,1002.3
2017-07-11T11:21:14.135Z,1002.3
2017-07-11T11:22:16.161Z,1002.3
2017-07-11T11:23:18.201Z,1002.3
2017-07-11T11:24:20.228Z,1002.3
2017-07-11T11:25:22.261Z,1002.3
2017-07-11T11:26:24.290Z,1002.2
2017-07-11T11:27:26.323Z,1002.3
2017-07-11T11:28:28.353Z,1002.2
2017-07-11T11:29:30.720Z,1002.2
2017-07-11T11:30:32.750Z,1002.2
2017-07-11T11:31:34.783Z,1002.2
2017-07-11T11:32:36.810Z,1002.2
2017-07-11T11:33:38.995Z,1002.1
2017-07-11T11:34:41.062Z,1002.2
2017-07-11T11:35:43.096Z,1002.1
2017-07-11T11:36:45.126Z,1002.1
2017-07-11T11:37:47.169Z,1002.1
2017-07-11T11:38:49.204Z,1002.2
2017-07-11T11:39:51.239Z,1002
2017-07-11T11:40:53.268Z,1002
2017-07-11T11:41:55.303Z,1002
2017-07-11T11:42:57.333Z,1002
2017-07-11T11:43:59.374Z,1002
2017-07-11T11:45:01.408Z,1002
2017-07-11T11:46:03.436Z,1002
2017-07-11T11:47:05.471Z,1002
2017-07-11T11:48:07.851Z,1002
2017-07-11T11:49:09.879Z,1002
2017-07-11T11:50:11.913Z,1002
2017-07-11T11:51:13.942Z,1002.1
2017-07-11T11:52:15.980Z,1002.1
2017-07-11T11:53:18.003Z,1002.1
2017-07-11T11:54:20.037Z,1002
2017-07-11T11:55:22.074Z,1002.1
2017-07-11T11:56:24.107Z,1002.1
2017-07-11T11:57:26.137Z,1002.1
2017-07-11T11:58:28.174Z,1002
2017-07-11T11:59:30.206Z,1002
2017-07-11T12:00:32.248Z,1002
2017-07-11T12:01:34.283Z,1001.8
2017-07-11T12:02:36.732Z,1001.8
2017-07-11T12:03:39.907Z,1001.8
2017-07-11T12:04:41.946Z,1001.8
2017-07-11T12:05:43.978Z,1001.8
2017-07-11T12:06:46.025Z,1001.7
2017-07-11T12:07:48.070Z,1001.8
2017-07-11T12:08:50.106Z,1001.8
2017-07-11T12:09:52.513Z,1001.8
2017-07-11T12:10:54.703Z,1001.8
2017-07-11T12:11:56.773Z,1001.8
2017-07-11T12:12:58.817Z,1001.8
2017-07-11T12:14:00.876Z,1001.8
2017-07-11T12:15:02.925Z,1001.8
2017-07-11T12:16:04.979Z,1001.8
2017-07-11T12:17:07.051Z,1001.8
2017-07-11T12:18:09.760Z,1001.8
2017-07-11T12:19:11.809Z,1001.8
2017-07-11T12:20:13.843Z,1001.8
2017-07-11T12:21:15.885Z,1001.9
2017-07-11T12:22:17.922Z,1001.8
2017-07-11T12:23:19.958Z,1001.8
2017-07-11T12:24:21.999Z,1001.8
2017-07-11T12:25:24.041Z,1001.8
2017-07-11T12:26:26.072Z,1001.8
2017-07-11T12:27:28.106Z,1001.8
2017-07-11T12:28:30.153Z,1001.7
2017-07-11T12:29:32.186Z,1001.8
2017-07-11T12:30:34.226Z,1001.8
2017-07-11T12:31:36.264Z,1001.8
2017-07-11T12:32:38.315Z,1001.8
2017-07-11T12:33:40.347Z,1001.8
2017-07-11T12:34:42.382Z,1001.8
2017-07-11T12:35:44.422Z,1001.8
2017-07-11T12:36:46.465Z,1001.8
2017-07-11T12:37:48.496Z,1001.8
2017-07-11T12:38:50.530Z,1001.8
2017-07-11T12:39:52.573Z,1001.9
2017-07-11T12:40:54.604Z,1001.9
2017-07-11T12:41:56.639Z,1001.9
2017-07-11T12:42:58.670Z,1001.8
2017-07-11T12:44:00.711Z,1001.8
2017-07-11T12:45:02.738Z,1001.8
2017-07-11T12:46:04.777Z,1001.8
2017-07-11T12:47:06.817Z,1001.7
2017-07-11T12:48:08.847Z,1001.7
2017-07-11T12:49:10.894Z,1001.7
2017-07-11T12:50:12.927Z,1001.8
2017-07-11T12:51:14.966Z,1001.7
2017-07-11T12:52:17.005Z,1001.8
2017-07-11T12:53:19.038Z,1001.7
2017-07-11T12:54:21.081Z,1001.7
2017-07-11T12:55:23.116Z,1001.7
2017-07-11T12:56:25.148Z,1001.8
2017-07-11T12:57:27.191Z,1001.8
2017-07-11T12:58:29.239Z,1001.7
2017-07-11T12:59:31.270Z,1001.7
2017-07-11T13:00:33.302Z,1001.7
2017-07-11T13:01:35.349Z,1001.7
2017-07-11T13:02:37.379Z,1001.7
2017-07-11T13:03:39.751Z,1001.7
2017-07-11T13:04:41.786Z,1001.7
2017-07-11T13:05:43.818Z,1001.8